createdAt,value
2023-04-25T00:01:57.624Z,97866.79
2023-04-25T00:04:26.810Z,97867.08
2023-04-25T00:06:55.287Z,97864.75
2023-04-25T00:09:23.261Z,97860.38
2023-04-25T00:11:50.867Z,97858.05
2023-04-25T00:14:18.776Z,97860.53
2023-04-25T00:16:46.420Z,97861.16
2023-04-25T00:19:14.653Z,97856.54
2023-04-25T00:21:42.690Z,97850.95
2023-04-25T00:24:10.324Z,97850.89
2023-04-25T00:26:37.939Z,97847.64
2023-04-25T00:29:05.559Z,97849.73
2023-04-25T00:31:33.225Z,97848.11
2023-04-25T00:34:01.027Z,97849.36
2023-04-25T00:36:28.637Z,97845.64
2023-04-25T00:38:56.808Z,97843.81
2023-04-25T00:41:26.446Z,97847.05
2023-04-25T00:43:55.914Z,97847.04
2023-04-25T00:46:23.619Z,97851.50
2023-04-25T00:48:51.935Z,97850.20
2023-04-25T00:51:21.686Z,97856.11
2023-04-25T00:53:51.122Z,97856.23
2023-04-25T00:56:19.434Z,97856.55
2023-04-25T00:58:47.161Z,97856.37
2023-04-25T01:01:14.884Z,97856.13
2023-04-25T01:03:43.861Z,97857.39
2023-04-25T01:06:12.038Z,97855.13
2023-04-25T01:08:40.143Z,97857.20
2023-04-25T01:11:08.364Z,97857.94
2023-04-25T01:13:36.104Z,97854.13
2023-04-25T01:16:05.911Z,97854.73
2023-04-25T01:18:34.129Z,97852.71
2023-04-25T01:21:15.777Z,97855.73
2023-04-25T01:23:43.945Z,97851.73
2023-04-25T01:26:13.012Z,97856.23
2023-04-25T01:28:44.064Z,97852.35
2023-04-25T01:31:13.152Z,97847.37
2023-04-25T01:33:41.068Z,97844.95
2023-04-25T01:36:08.966Z,97848.83
2023-04-25T01:38:36.975Z,97847.33
2023-04-25T01:41:04.909Z,97844.10
2023-04-25T01:43:32.565Z,97846.00
2023-04-25T01:46:00.701Z,97844.21
2023-04-25T01:48:28.738Z,97844.92
2023-04-25T01:50:56.835Z,97849.22
2023-04-25T01:53:24.937Z,97851.60
2023-04-25T01:55:52.837Z,97855.86
2023-04-25T01:58:23.032Z,97854.48
2023-04-25T02:00:59.565Z,97855.16
2023-04-25T02:03:28.709Z,97853.55
2023-04-25T02:05:57.982Z,97852.73
2023-04-25T02:08:27.739Z,97857.04
2023-04-25T02:10:56.655Z,97851.73
2023-04-25T02:13:25.720Z,97850.16
2023-04-25T02:16:03.359Z,97855.24
2023-04-25T02:18:32.467Z,97850.42
2023-04-25T02:21:02.016Z,97850.31
2023-04-25T02:23:29.984Z,97852.60
2023-04-25T02:25:58.340Z,97849.89
2023-04-25T02:28:27.018Z,97848.63
2023-04-25T02:30:55.181Z,97851.55
2023-04-25T02:33:22.856Z,97852.91
2023-04-25T02:35:50.477Z,97854.70
2023-04-25T02:38:18.075Z,97852.33
2023-04-25T02:40:45.771Z,97849.14
2023-04-25T02:43:13.459Z,97855.26
2023-04-25T02:45:41.051Z,97857.41
2023-04-25T02:48:08.742Z,97860.27
2023-04-25T02:50:36.623Z,97863.39
2023-04-25T02:53:04.369Z,97862.34
2023-04-25T02:55:37.399Z,97863.49
2023-04-25T02:58:06.034Z,97858.66
2023-04-25T03:00:46.540Z,97858.70
2023-04-25T03:03:14.839Z,97857.42
2023-04-25T03:05:42.704Z,97859.90
2023-04-25T03:08:10.679Z,97856.59
2023-04-25T03:10:39.572Z,97855.70
2023-04-25T03:13:09.312Z,97857.74
2023-04-25T03:15:37.645Z,97858.14
2023-04-25T03:18:05.365Z,97864.27
2023-04-25T03:20:33.152Z,97867.36
2023-04-25T03:23:00.815Z,97869.08
2023-04-25T03:25:29.133Z,97872.14
2023-04-25T03:27:56.748Z,97877.09
2023-04-25T03:30:24.709Z,97873.45
2023-04-25T03:32:52.631Z,97876.98
2023-04-25T03:35:20.371Z,97874.06
2023-04-25T03:37:48.051Z,97874.55
2023-04-25T03:40:19.852Z,97874.80
2023-04-25T03:43:08.319Z,97875.52
2023-04-25T03:45:36.769Z,97877.54
2023-04-25T03:48:04.989Z,97880.25
2023-04-25T03:50:32.781Z,97881.61
2023-04-25T03:53:00.638Z,97884.87
2023-04-25T03:55:30.874Z,97881.59
2023-04-25T03:57:59.529Z,97886.35
2023-04-25T04:00:27.299Z,97886.86
2023-04-25T04:02:55.398Z,97888.96
2023-04-25T04:05:24.386Z,97888.02
2023-04-25T04:07:56.168Z,97885.24
2023-04-25T04:10:24.287Z,97888.95
2023-04-25T04:12:51.918Z,97887.59
2023-04-25T04:15:19.628Z,97887.63
2023-04-25T04:17:49.507Z,97893.01
2023-04-25T04:20:17.212Z,97896.60
2023-04-25T04:22:44.857Z,97897.99
2023-04-25T04:25:14.991Z,97898.63
2023-04-25T04:28:04.518Z,97900.05
2023-04-25T04:30:42.282Z,97902.42
2023-04-25T04:33:10.270Z,97904.53
2023-04-25T04:35:38.337Z,97910.66
2023-04-25T04:38:06.277Z,97909.54
2023-04-25T04:40:35.843Z,97908.23
2023-04-25T04:43:15.866Z,97912.19
2023-04-25T04:46:05.045Z,97913.02
2023-04-25T04:48:41.161Z,97911.07
2023-04-25T04:51:35.094Z,97911.19
2023-04-25T04:54:10.505Z,97913.77
2023-04-25T04:57:12.029Z,97917.11
2023-04-25T04:59:52.438Z,97912.86
2023-04-25T05:02:40.028Z,97909.34
2023-04-25T05:05:28.214Z,97918.98
2023-04-25T05:08:19.044Z,97922.73
2023-04-25T05:10:57.944Z,97920.75
2023-04-25T05:13:35.372Z,97921.67
2023-04-25T05:16:29.115Z,97925.24
2023-04-25T05:19:08.556Z,97928.42
2023-04-25T05:21:48.715Z,97928.15
2023-04-25T05:24:31.919Z,97929.20
2023-04-25T05:27:24.941Z,97932.60
2023-04-25T05:30:15.971Z,97931.52
2023-04-25T05:32:56.995Z,97932.52
2023-04-25T05:35:25.126Z,97938.01
2023-04-25T05:37:52.933Z,97935.79
2023-04-25T05:40:25.131Z,97937.27
2023-04-25T05:43:02.233Z,97940.03
2023-04-25T05:45:43.600Z,97936.86
2023-04-25T05:48:31.014Z,97939.90
2023-04-25T05:51:21.168Z,97940.00
2023-04-25T05:54:00.831Z,97941.67
2023-04-25T05:56:28.886Z,97941.33
2023-04-25T05:58:57.683Z,97948.80
2023-04-25T06:01:25.354Z,97948.83
2023-04-25T06:03:54.049Z,97952.73
2023-04-25T06:09:52.109Z,97953.67
2023-04-25T06:12:19.778Z,97954.89
2023-04-25T06:14:48.010Z,97954.20
2023-04-25T06:17:15.930Z,97953.08
2023-04-25T06:19:43.543Z,97958.06
2023-04-25T06:22:11.567Z,97961.41
2023-04-25T06:24:40.765Z,97959.71
2023-04-25T06:27:08.624Z,97959.42
2023-04-25T06:29:36.311Z,97958.20
2023-04-25T06:32:04.150Z,97964.71
2023-04-25T06:34:32.163Z,97961.90
2023-04-25T06:37:00.222Z,97964.09
2023-04-25T06:39:27.909Z,97963.70
2023-04-25T06:41:56.916Z,97969.64
2023-04-25T06:44:42.950Z,97972.61
2023-04-25T06:47:11.139Z,97973.88
2023-04-25T06:49:39.335Z,97977.61
2023-04-25T06:52:08.279Z,97976.79
2023-04-25T06:54:35.895Z,97974.37
2023-04-25T06:57:10.759Z,97973.95
2023-04-25T06:59:38.670Z,97976.50
2023-04-25T07:02:07.184Z,97971.94
2023-04-25T07:04:35.679Z,97979.63
2023-04-25T07:07:04.885Z,97977.79
2023-04-25T07:09:41.008Z,97973.53
2023-04-25T07:12:08.757Z,97969.98
2023-04-25T07:14:36.625Z,97972.73
2023-04-25T07:17:07.626Z,97971.02
2023-04-25T07:19:37.738Z,97971.45
2023-04-25T07:22:05.468Z,97977.27
2023-04-25T07:24:33.435Z,97971.31
2023-04-25T07:27:02.327Z,97971.84
2023-04-25T07:29:42.927Z,97972.78
2023-04-25T07:32:13.372Z,97974.86
2023-04-25T07:34:43.660Z,97971.42
2023-04-25T07:37:11.461Z,97969.78
2023-04-25T07:39:47.948Z,97973.11
2023-04-25T07:42:15.908Z,97975.80
2023-04-25T07:44:44.944Z,97975.23
2023-04-25T07:47:14.100Z,97978.20
2023-04-25T07:49:43.142Z,97980.11
2023-04-25T07:52:10.762Z,97981.89
2023-04-25T07:54:39.159Z,97981.20
2023-04-25T07:57:14.992Z,97977.52
2023-04-25T07:59:43.057Z,97980.81
2023-04-25T08:02:11.070Z,97974.11
2023-04-25T08:04:40.412Z,97980.34
2023-04-25T08:07:10.820Z,97982.33
2023-04-25T08:09:50.699Z,97985.41
2023-04-25T08:12:24.686Z,97983.48
2023-04-25T08:14:52.603Z,97987.02
2023-04-25T08:17:20.469Z,97982.95
2023-04-25T08:19:48.146Z,97988.89
2023-04-25T08:22:25.304Z,97987.50
2023-04-25T08:24:57.457Z,97985.52
2023-04-25T08:27:27.000Z,97982.45
2023-04-25T08:29:54.876Z,97981.56
2023-04-25T08:32:22.655Z,97988.66
2023-04-25T08:35:17.855Z,97988.16
2023-04-25T08:37:45.834Z,97989.31
2023-04-25T08:40:16.598Z,97986.58
2023-04-25T08:42:59.926Z,97988.78
2023-04-25T08:45:28.986Z,97988.45
2023-04-25T08:47:58.174Z,97990.69
2023-04-25T08:50:27.423Z,97987.94
2023-04-25T08:52:57.292Z,97994.29
2023-04-25T08:55:27.705Z,97991.06
2023-04-25T08:57:58.111Z,97996.89
2023-04-25T09:00:25.869Z,97994.91
2023-04-25T09:02:53.955Z,97998.77
2023-04-25T09:05:21.936Z,98001.70
2023-04-25T09:07:53.335Z,98006.20
2023-04-25T09:10:21.081Z,98006.56
2023-04-25T09:13:06.660Z,98008.80
2023-04-25T09:15:59.046Z,98013.16
2023-04-25T09:18:38.712Z,98016.09
2023-04-25T09:21:13.607Z,98017.25
2023-04-25T09:23:50.831Z,98015.06
2023-04-25T09:26:20.963Z,98012.22
2023-04-25T09:28:49.118Z,98013.97
2023-04-25T09:31:27.698Z,98016.19
2023-04-25T09:34:02.641Z,98018.55
2023-04-25T09:36:37.346Z,98018.86
2023-04-25T09:39:22.486Z,98016.44
2023-04-25T09:42:00.372Z,98020.25
2023-04-25T09:44:28.136Z,98021.19
2023-04-25T09:46:56.249Z,98020.60
2023-04-25T09:49:27.156Z,98021.55
2023-04-25T09:52:06.920Z,98028.97
2023-04-25T09:54:44.778Z,98025.77
2023-04-25T09:57:18.407Z,98027.75
2023-04-25T09:59:51.236Z,98031.46
2023-04-25T10:02:22.920Z,98033.52
2023-04-25T10:04:56.245Z,98035.37
2023-04-25T10:07:31.357Z,98034.83
2023-04-25T10:10:02.711Z,98037.98
2023-04-25T10:12:34.458Z,98034.60
2023-04-25T10:15:04.379Z,98039.23
2023-04-25T10:17:33.473Z,98034.05
2023-04-25T10:20:06.044Z,98032.37
2023-04-25T10:22:35.865Z,98031.99
2023-04-25T10:25:07.194Z,98029.45
2023-04-25T10:27:35.365Z,98032.60
2023-04-25T10:30:24.513Z,98033.11
2023-04-25T10:32:55.967Z,98032.78
2023-04-25T10:35:29.477Z,98035.16
2023-04-25T10:38:10.590Z,98032.20
2023-04-25T10:40:38.203Z,98031.71
2023-04-25T10:43:36.338Z,98027.52
2023-04-25T10:46:20.429Z,98028.39
2023-04-25T10:48:57.646Z,98029.91
2023-04-25T10:51:29.538Z,98028.23
2023-04-25T10:54:08.596Z,98025.18
2023-04-25T10:56:41.700Z,98023.62
2023-04-25T10:59:11.225Z,98026.13
2023-04-25T11:01:41.130Z,98026.77
2023-04-25T11:04:22.551Z,98026.94
2023-04-25T11:07:08.934Z,98026.17
2023-04-25T11:09:39.594Z,98025.37
2023-04-25T11:12:09.121Z,98027.61
2023-04-25T11:14:36.958Z,98028.55
2023-04-25T11:17:04.594Z,98028.80
2023-04-25T11:19:32.661Z,98030.67
2023-04-25T11:22:01.869Z,98027.34
2023-04-25T11:24:31.203Z,98027.33
2023-04-25T11:26:59.866Z,98027.20
2023-04-25T11:29:28.619Z,98027.33
2023-04-25T11:31:59.373Z,98028.02
2023-04-25T11:34:28.107Z,98028.51
2023-04-25T11:36:55.705Z,98029.95
2023-04-25T11:39:25.891Z,98033.36
2023-04-25T11:41:54.275Z,98035.98
2023-04-25T11:44:22.708Z,98031.58
2023-04-25T11:46:50.397Z,98031.29
2023-04-25T11:49:20.778Z,98028.83
2023-04-25T11:51:49.281Z,98037.95
2023-04-25T11:54:17.295Z,98038.04
2023-04-25T11:56:45.812Z,98039.70
2023-04-25T11:59:14.253Z,98039.94
2023-04-25T12:01:49.411Z,98037.40
2023-04-25T12:04:22.081Z,98041.70
2023-04-25T12:06:55.659Z,98040.41
2023-04-25T12:09:31.900Z,98037.41
2023-04-25T12:12:04.506Z,98037.27
2023-04-25T12:14:35.743Z,98034.39
2023-04-25T12:17:06.318Z,98038.28
2023-04-25T12:19:35.852Z,98038.49
2023-04-25T12:22:04.509Z,98037.55
2023-04-25T12:24:37.758Z,98040.11
2023-04-25T12:27:09.400Z,98039.80
2023-04-25T12:32:07.889Z,98040.02
2023-04-25T12:34:36.996Z,98038.23
2023-04-25T12:37:04.785Z,98040.95
2023-04-25T12:39:32.421Z,98037.70
2023-04-25T12:42:00.779Z,98037.83
2023-04-25T12:44:28.427Z,98035.93
2023-04-25T12:46:56.228Z,98038.11
2023-04-25T12:49:24.385Z,98040.37
2023-04-25T12:51:52.783Z,98035.42
2023-04-25T12:54:20.770Z,98036.34
2023-04-25T12:56:48.927Z,98037.89
2023-04-25T12:59:16.608Z,98038.02
2023-04-25T13:01:45.351Z,98037.82
2023-04-25T13:04:13.511Z,98040.23
2023-04-25T13:06:41.238Z,98039.27
2023-04-25T13:09:09.513Z,98035.48
2023-04-25T13:11:37.281Z,98029.88
2023-04-25T13:14:05.828Z,98028.61
2023-04-25T13:16:34.096Z,98032.44
2023-04-25T13:19:01.929Z,98031.17
2023-04-25T13:21:31.919Z,98031.59
2023-04-25T13:23:59.524Z,98037.17
2023-04-25T13:26:27.207Z,98037.34
2023-04-25T13:28:54.797Z,98031.88
2023-04-25T13:31:22.486Z,98032.16
2023-04-25T13:33:50.493Z,98032.36
2023-04-25T13:36:18.391Z,98026.75
2023-04-25T13:38:48.264Z,98028.46
2023-04-25T13:41:19.749Z,98027.38
2023-04-25T13:43:48.831Z,98032.66
2023-04-25T13:46:35.243Z,98035.50
2023-04-25T13:49:12.274Z,98037.20
2023-04-25T13:51:41.820Z,98033.52
2023-04-25T13:54:09.759Z,98035.29
2023-04-25T13:56:37.731Z,98035.86
2023-04-25T13:59:05.313Z,98038.88
2023-04-25T14:01:35.508Z,98037.08
2023-04-25T14:04:06.910Z,98036.55
2023-04-25T14:06:35.170Z,98042.31
2023-04-25T14:09:02.922Z,98047.95
2023-04-25T14:11:30.625Z,98050.60
2023-04-25T14:13:58.285Z,98047.73
2023-04-25T14:16:26.022Z,98055.52
2023-04-25T14:18:55.420Z,98055.10
2023-04-25T14:21:23.134Z,98059.27
2023-04-25T14:23:50.987Z,98051.41
2023-04-25T14:26:19.273Z,98056.19
2023-04-25T14:28:46.924Z,98055.06
2023-04-25T14:31:14.615Z,98052.73
2023-04-25T14:33:43.776Z,98056.49
2023-04-25T14:36:12.060Z,98055.22
2023-04-25T14:38:39.846Z,98054.20
2023-04-25T14:41:07.527Z,98053.64
2023-04-25T14:43:35.161Z,98061.26
2023-04-25T14:46:03.535Z,98061.92
2023-04-25T14:48:31.261Z,98060.14
2023-04-25T14:50:59.092Z,98058.33
2023-04-25T14:53:27.868Z,98062.78
2023-04-25T14:55:55.491Z,98065.95
2023-04-25T14:58:23.839Z,98067.85
2023-04-25T15:00:51.634Z,98066.64
2023-04-25T15:03:20.157Z,98068.41
2023-04-25T15:05:48.137Z,98068.41
2023-04-25T15:08:15.736Z,98069.86
2023-04-25T15:10:43.637Z,98073.49
2023-04-25T15:13:11.647Z,98068.80
2023-04-25T15:15:39.382Z,98073.23
2023-04-25T15:18:07.041Z,98071.23
2023-04-25T15:20:35.780Z,98073.11
2023-04-25T15:23:04.526Z,98071.67
2023-04-25T15:25:32.307Z,98072.37
2023-04-25T15:28:00.951Z,98069.17
2023-04-25T15:30:28.625Z,98076.75
2023-04-25T15:32:56.314Z,98070.20
2023-04-25T15:35:24.078Z,98063.60
2023-04-25T15:37:52.305Z,98067.41
2023-04-25T15:40:20.142Z,98069.58
2023-04-25T15:42:52.803Z,98068.70
2023-04-25T15:45:25.754Z,98068.40
2023-04-25T15:47:55.373Z,98066.58
2023-04-25T15:50:24.088Z,98067.14
2023-04-25T15:52:52.025Z,98063.84
2023-04-25T15:55:21.869Z,98067.03
2023-04-25T15:57:50.531Z,98067.65
2023-04-25T16:00:19.311Z,98068.69
2023-04-25T16:02:48.358Z,98069.16
2023-04-25T16:05:17.270Z,98066.92
2023-04-25T16:07:45.894Z,98067.21
2023-04-25T16:10:14.715Z,98065.66
2023-04-25T16:12:42.507Z,98068.25
2023-04-25T16:15:10.281Z,98064.86
2023-04-25T16:17:38.108Z,98069.30
2023-04-25T16:20:10.217Z,98073.03
2023-04-25T16:22:41.832Z,98073.16
2023-04-25T16:25:10.247Z,98078.46
2023-04-25T16:27:39.604Z,98078.66
2023-04-25T16:30:09.333Z,98078.77
2023-04-25T16:32:38.210Z,98079.08
2023-04-25T16:35:06.811Z,98080.42
2023-04-25T16:37:34.563Z,98077.95
2023-04-25T16:40:02.492Z,98080.98
2023-04-25T16:42:30.121Z,98083.95
2023-04-25T16:44:58.096Z,98085.92
2023-04-25T16:47:26.075Z,98088.12
2023-04-25T16:49:54.009Z,98084.15
2023-04-25T16:52:23.628Z,98089.10
2023-04-25T16:54:51.326Z,98090.03
2023-04-25T16:57:18.918Z,98091.73
2023-04-25T16:59:46.619Z,98096.11
2023-04-25T17:02:15.113Z,98096.04
2023-04-25T17:04:43.054Z,98099.86
2023-04-25T17:07:10.960Z,98101.42
2023-04-25T17:09:39.037Z,98101.23
2023-04-25T17:12:07.081Z,98101.12
2023-04-25T17:14:35.953Z,98104.15
2023-04-25T17:17:04.142Z,98105.46
2023-04-25T17:19:32.161Z,98109.02
2023-04-25T17:21:59.867Z,98108.17
2023-04-25T17:24:27.456Z,98106.80
2023-04-25T17:26:57.197Z,98107.97
2023-04-25T17:29:24.850Z,98108.45
2023-04-25T17:31:53.517Z,98110.03
2023-04-25T17:34:22.177Z,98110.56
2023-04-25T17:36:50.135Z,98112.88
2023-04-25T17:39:17.906Z,98113.30
2023-04-25T17:41:45.759Z,98111.46
2023-04-25T17:44:13.417Z,98110.04
2023-04-25T17:46:41.473Z,98113.58
2023-04-25T17:49:09.389Z,98115.96
2023-04-25T17:51:37.402Z,98117.35
2023-04-25T17:54:05.074Z,98117.05
2023-04-25T17:56:36.345Z,98118.45
2023-04-25T17:59:04.761Z,98119.79
2023-04-25T18:01:32.510Z,98120.77
2023-04-25T18:04:00.844Z,98125.16
2023-04-25T18:06:29.370Z,98130.34
2023-04-25T18:08:57.224Z,98133.65
2023-04-25T18:11:25.525Z,98133.59
2023-04-25T18:13:53.398Z,98136.89
2023-04-25T18:16:21.583Z,98148.23
2023-04-25T18:18:53.710Z,98148.24
2023-04-25T18:21:21.940Z,98151.23
2023-04-25T18:23:49.770Z,98151.95
2023-04-25T18:26:18.181Z,98150.20
2023-04-25T18:28:45.833Z,98160.42
2023-04-25T18:31:14.074Z,98160.78
2023-04-25T18:33:42.773Z,98164.60
2023-04-25T18:36:10.424Z,98170.08
2023-04-25T18:38:38.011Z,98170.19
2023-04-25T18:41:15.486Z,98175.07
2023-04-25T18:43:55.594Z,98176.85
2023-04-25T18:46:23.545Z,98181.86
2023-04-25T18:48:55.390Z,98189.80
2023-04-25T18:51:24.313Z,98195.09
2023-04-25T18:53:52.176Z,98199.13
2023-04-25T18:56:22.622Z,98203.30
2023-04-25T18:58:51.699Z,98203.38
2023-04-25T19:01:20.726Z,98208.02
2023-04-25T19:03:56.961Z,98208.55
2023-04-25T19:06:28.028Z,98214.98
2023-04-25T19:08:57.533Z,98216.93
2023-04-25T19:11:25.336Z,98220.17
2023-04-25T19:13:56.629Z,98224.97
2023-04-25T19:16:26.433Z,98229.67
2023-04-25T19:18:56.400Z,98230.34
2023-04-25T19:21:24.086Z,98232.35
2023-04-25T19:23:54.092Z,98235.10
2023-04-25T19:26:22.620Z,98235.52
2023-04-25T19:29:05.231Z,98239.38
2023-04-25T19:31:37.072Z,98240.89
2023-04-25T19:34:06.095Z,98242.88
2023-04-25T19:36:34.392Z,98243.95
2023-04-25T19:39:02.775Z,98249.77
2023-04-25T19:41:36.994Z,98252.04
2023-04-25T19:44:07.203Z,98254.20
2023-04-25T19:46:36.315Z,98250.33
2023-04-25T19:49:07.681Z,98254.44
2023-04-25T19:51:36.646Z,98255.58
2023-04-25T19:54:04.727Z,98256.19
2023-04-25T19:56:32.728Z,98262.58
2023-04-25T19:59:00.693Z,98258.95
2023-04-25T20:01:28.904Z,98257.71
2023-04-25T20:03:56.822Z,98258.81
2023-04-25T20:06:24.851Z,98258.63
2023-04-25T20:08:55.873Z,98259.84
2023-04-25T20:11:23.791Z,98259.06
2023-04-25T20:13:51.586Z,98262.48
2023-04-25T20:16:21.043Z,98261.85
2023-04-25T20:18:49.124Z,98265.98
2023-04-25T20:21:17.208Z,98265.68
2023-04-25T20:23:45.933Z,98269.73
2023-04-25T20:26:14.155Z,98268.55
2023-04-25T20:28:41.946Z,98270.17
2023-04-25T20:31:10.887Z,98268.77
2023-04-25T20:33:38.830Z,98274.83
2023-04-25T20:36:06.706Z,98273.27
2023-04-25T20:38:34.340Z,98267.94
2023-04-25T20:41:02.155Z,98272.55
2023-04-25T20:43:31.286Z,98273.70
2023-04-25T20:46:00.034Z,98275.17
2023-04-25T20:48:27.771Z,98281.23
2023-04-25T20:50:55.522Z,98279.93
2023-04-25T20:53:23.207Z,98284.05
2023-04-25T20:55:50.881Z,98278.96
2023-04-25T20:58:18.503Z,98278.39
2023-04-25T21:00:47.482Z,98283.77
2023-04-25T21:03:16.104Z,98283.91
2023-04-25T21:05:43.914Z,98287.54
2023-04-25T21:08:11.556Z,98290.02
2023-04-25T21:10:39.281Z,98293.25
2023-04-25T21:13:07.414Z,98296.41
2023-04-25T21:15:35.204Z,98296.30
2023-04-25T21:18:02.903Z,98291.27
2023-04-25T21:20:30.760Z,98300.27
2023-04-25T21:22:59.262Z,98298.07
2023-04-25T21:25:31.424Z,98298.99
2023-04-25T21:27:59.899Z,98301.83
2023-04-25T21:30:27.884Z,98301.02
2023-04-25T21:32:56.402Z,98303.92
2023-04-25T21:35:24.463Z,98302.77
2023-04-25T21:37:52.561Z,98305.75
2023-04-25T21:40:20.879Z,98305.84
2023-04-25T21:42:51.842Z,98303.18
2023-04-25T21:45:20.232Z,98305.20
2023-04-25T21:47:48.309Z,98309.39
2023-04-25T21:50:17.062Z,98305.96
2023-04-25T21:52:44.837Z,98308.58
2023-04-25T21:55:12.685Z,98308.46
2023-04-25T21:57:41.101Z,98309.52
2023-04-25T22:00:24.529Z,98309.78
2023-04-25T22:02:52.658Z,98310.22
2023-04-25T22:05:22.473Z,98310.07
2023-04-25T22:07:51.479Z,98309.56
2023-04-25T22:10:21.123Z,98316.09
2023-04-25T22:12:50.931Z,98314.11
2023-04-25T22:15:19.378Z,98309.54
2023-04-25T22:17:47.441Z,98313.34
2023-04-25T22:20:15.630Z,98312.85
2023-04-25T22:22:47.061Z,98310.81
2023-04-25T22:25:15.351Z,98319.87
2023-04-25T22:27:43.797Z,98320.83
2023-04-25T22:30:15.073Z,98326.15
2023-04-25T22:32:43.259Z,98327.44
2023-04-25T22:35:11.709Z,98327.84
2023-04-25T22:37:41.433Z,98323.35
2023-04-25T22:40:10.459Z,98326.23
2023-04-25T22:42:39.882Z,98327.99
2023-04-25T22:45:08.863Z,98338.50
2023-04-25T22:47:37.850Z,98339.66
2023-04-25T22:50:12.451Z,98338.43
2023-04-25T22:52:40.581Z,98339.42
2023-04-25T22:55:08.408Z,98345.59
2023-04-25T22:57:39.518Z,98343.77
2023-04-25T23:00:15.594Z,98344.38
2023-04-25T23:02:45.888Z,98344.48
2023-04-25T23:05:15.384Z,98345.89
2023-04-25T23:07:44.846Z,98351.97
2023-04-25T23:10:14.079Z,98346.04
2023-04-25T23:12:42.340Z,98350.60
2023-04-25T23:15:10.846Z,98357.83
2023-04-25T23:17:38.917Z,98361.18
2023-04-25T23:20:07.847Z,98358.33
2023-04-25T23:22:36.103Z,98364.38
2023-04-25T23:25:04.113Z,98364.60
2023-04-25T23:27:31.745Z,98362.63
2023-04-25T23:29:59.330Z,98360.58
2023-04-25T23:32:27.162Z,98360.95
2023-04-25T23:34:55.191Z,98361.13
2023-04-25T23:37:23.055Z,98358.70
2023-04-25T23:39:51.243Z,98363.12
2023-04-25T23:42:18.916Z,98368.20
2023-04-25T23:44:46.573Z,98367.16
2023-04-25T23:47:17.558Z,98371.51
2023-04-25T23:49:45.820Z,98367.39
2023-04-25T23:52:13.518Z,98363.34
2023-04-25T23:54:41.127Z,98366.98
2023-04-25T23:57:08.756Z,98369.14
2023-04-25T23:59:36.415Z,98373.48
